Racecast

Lia Abrams

Track 757 (VA) · 10 · Compare head to head

Athlete ratingi
Races 108
Seasons 3 2024 — 2026
Speed rating — all races

Track & Field

TF speed rating

2026 TF

Track 757 (VA) · Grade 10

Date Meet Event Result Place Ratingi Difficultyi PR/SR Flags
2026-06-14 AAU Virginia District Qualifier - North lj 12' 3" -0.9%
2026-06-14 AAU Virginia District Qualifier - North 100m 14.71 4th · 1st on team -0.9%
2026-06-14 AAU Virginia District Qualifier - North 200m 35.17 20th · 1st on team -0.9%
2026-05-30 Va Beach Flames Invite lj 11' 10.50" +0.1%
2026-05-30 Va Beach Flames Invite 200m 30.48 15th · 3rd on team +0.1% ★PR SR
2026-05-30 Va Beach Flames Invite 400m 1:14.27 23rd · 5th on team +0.1% SR
2026-05-24 HR Hurricanes CAT 5 Invite lj 11' 9.50" -1.1%
2026-05-24 HR Hurricanes CAT 5 Invite 400m 1:14.97 18th · 3rd on team -1.1% SR
2026-05-24 HR Hurricanes CAT 5 Invite 100m 14.72 24th · 6th on team -1.1%
2026-05-16 2026 Technique Relays lj 12' 9" -1.1%
2026-05-16 2026 Technique Relays 100m 14.26 7th · 1st on team -1.1% ★PR SR
2026-05-09 VA "Legends" T & F Youth Invite lj 3.76m -0.9%
2026-05-09 VA "Legends" T & F Youth Invite 200m 31.72 22nd · 2nd on team -0.9%
2026-05-09 VA "Legends" T & F Youth Invite 100m 15.21 21st · 1st on team -0.9% SR
2026-03-06 AAU Indoor National Championship lj 3.50m -1.0%
2026-03-06 AAU Indoor National Championship 60m 8.99 28th · 1st on team -1.0% ★PR SR
2026-03-06 AAU Indoor National Championship 200m 31.62 45th · 1st on team -1.0%
2026-02-22 3rd Annual HRH Winter Storm Classic lj 10' 7.50" 0.0%
2026-02-22 3rd Annual HRH Winter Storm Classic 55m 8.41 18th · 3rd on team 0.0% ★PR SR
2026-02-22 3rd Annual HRH Winter Storm Classic 200m 31.16 21st · 3rd on team 0.0% PR SR
2026-01-11 Lighting Track Classic 60m 9.43 20th · 7th on team -1.0%
2026-01-11 Lighting Track Classic 200m 34.56 21st · 2nd on team -1.0%
2026-01-11 Lighting Track Classic 400m 1:18.18 14th · 3rd on team -1.0% SR
2026-01-04 Coach Miami Presents The DMV's INDOOR SPRINTFEST 200m 31.62 12th · 2nd on team -1.0% SR
2026-01-04 Coach Miami Presents The DMV's INDOOR SPRINTFEST 60m 9.57 28th · 3rd on team -1.0%
2025-12-21 Grant Holloway Invite 200m 31.67 8th · 1st on team -1.0% SR
2025-12-21 Grant Holloway Invite 60m 9.36 21st · 3rd on team -1.0% SR

2025 TF

Virginia Elite (VA) · Grade 9

Date Meet Event Result Place Ratingi Difficultyi PR/SR Flags
2025-06-25 AAU Track & Field Region 5 Qualifier lj DNS -0.9%
2025-06-25 AAU Track & Field Region 5 Qualifier shot DNS -0.9%
2025-06-25 AAU Track & Field Region 5 Qualifier hj DNS -0.9%
2025-06-14 AAU Virginia District Qualifier (Southern) lj 8-09.00 -1.7%
2025-06-14 AAU Virginia District Qualifier (Southern) 400m 1:29.31 18th · 6th on team -1.7%
2025-06-07 Darius Dixon Invite lj 9-07.50 -0.7%
2025-06-07 Darius Dixon Invite 100m 15.87 13th · 6th on team -0.7%
2025-06-07 Darius Dixon Invite 100m 15 5th · 3rd on team -0.7%
2025-06-07 Darius Dixon Invite 400m 1:17.29 5th · 1st on team -0.7%
2025-05-31 Va Beach Flames Invite lj 9' 8" +0.1%
2025-05-31 Va Beach Flames Invite 100m 15.47 21st · 3rd on team +0.1%
2025-05-31 Va Beach Flames Invite 400m 1:22.74 22nd · 2nd on team +0.1%
2025-05-10 Legends Invitational hosted by Eastend Lightning 200m 31.47 8th · 2nd on team -0.7% PR SR
2025-05-10 Legends Invitational hosted by Eastend Lightning 100m 14.93 12th · 2nd on team -0.7% PR SR
2025-04-27 TRACK 757 Classic lj 3.37m -0.6%
2025-04-27 TRACK 757 Classic 100m 14.96 17th · 4th on team -0.6% PR SR
2025-04-27 TRACK 757 Classic 400m 1:15.34 4th · 1st on team -0.6% SR
2025-03-07 AAU Indoor National Championships lj 2.98m -1.0%
2025-03-07 AAU Indoor National Championships 60m 9.28 35th · 2nd on team -1.0% PR SR
2025-02-22 BWSP Queens and Kings Championships 200m 31.64 4th · 2nd on team +1.1% PR SR
2025-02-22 BWSP Queens and Kings Championships 55m 8.68 17th · 4th on team +1.1%
2025-02-02 Track757 Invite 200m 32.14 11th · 2nd on team -1.0%
2025-02-02 Track757 Invite 60m 9.61 25th · 2nd on team -1.0%
2025-01-18 BWSP Queens and Kings - Meet 2 hj DNS +1.1%
2025-01-18 BWSP Queens and Kings - Meet 2 shot 12' 5.50" +1.1%
2025-01-18 BWSP Queens and Kings - Meet 2 55m 8.68 12th · 1st on team +1.1% PR SR
2025-01-05 757 Showdown 200m 32.07 5th · 1st on team -1.0%
2024-12-22 Grant Holloway Invite '24 lj 3.25m -1.0%
2024-12-22 Grant Holloway Invite '24 60m 9.52 27th · 4th on team -1.0%
2024-12-22 Grant Holloway Invite '24 200m 31.88 17th · 3rd on team -1.0%
2024-12-15 VB Oceanfront Invitational lj DNS -1.0%
2024-12-15 VB Oceanfront Invitational 200m 32.36 6th · 4th on team -1.0%
2024-12-15 VB Oceanfront Invitational 60m 9.38 6th · 4th on team -1.0%
2024-12-15 VB Oceanfront Invitational 60m 9.5 10th · 6th on team -1.0%
2024-12-08 Coach Miami Presents the Virginia Beast Invitational 200m 31.77 15th · 4th on team -1.0% PR SR
2024-12-08 Coach Miami Presents the Virginia Beast Invitational 60m 9.44 29th · 6th on team -1.0% PR SR
2024-12-08 Coach Miami Presents the Virginia Beast Invitational 400m 1:22.92 18th · 2nd on team -1.0%
2024-12-08 Coach Miami Presents the Virginia Beast Invitational 60m 9.37 27th · 4th on team -1.0% PR SR
2024-08-03 AAU Junior Olympic Games 400m 1:18.34 76th · 3rd on team -1.4% SR

2024 TF

Track 757 (VA) · Grade 8

Date Meet Event Result Place Ratingi Difficultyi PR/SR Flags
2024-07-13 AAU National Club Championships lj DNS -1.0%
2024-07-13 Cannonball Cooper Invite 400m 1:19.39 8th · 4th on team 0.0%
2024-07-13 Cannonball Cooper Invite 100m 15.34 8th · 2nd on team 0.0%
2024-07-13 Cannonball Cooper Invite 200m 32.32 9th · 4th on team 0.0%
2024-06-29 AAU Region 05 National Qualifier lj 10-03.25 -0.9%
2024-06-29 AAU Region 05 National Qualifier shot 3.39m -0.9%
2024-06-29 AAU Region 05 National Qualifier hj 0.96m -0.9%
2024-06-29 AAU Region 05 National Qualifier 400m 1:14.26 3rd · 2nd on team -0.9%
2024-06-29 AAU Region 05 National Qualifier 200m 32.22 22nd · 4th on team -0.9% PR SR
2024-06-08 AAU Virginia South District Qualifier lj 11-01.75 -0.6%
2024-06-08 AAU Virginia South District Qualifier 400m 1:14.26 4th · 3rd on team -0.6% PR SR
2024-06-08 AAU Virginia South District Qualifier 100m 15.25 8th · 2nd on team -0.6% PR SR
2024-06-01 VB Flames Invitational hj 3-00.00 +0.1%
2024-06-01 VB Flames Invitational 200m 32.45 16th · 2nd on team +0.1% PR SR
2024-06-01 VB Flames Invitational 400m 1:14.77 11th · 4th on team +0.1% PR SR
2024-05-11 2024 EE Lightning "Legends" Invite 400m 1:16.47 15th · 4th on team -1.9%
2024-05-11 2024 EE Lightning "Legends" Invite 100m 15.67 17th · 3rd on team -1.9%
2024-05-05 2024 Technique Relays 400m 1:15.72 11th · 7th on team +1.0% PR SR
2024-05-05 2024 Technique Relays 100m 15.66 15th · 6th on team +1.0% PR SR
2024-04-20 Darius Dixon Invite 400m 1:23.76 14th · 3rd on team +0.4%
2024-04-20 Darius Dixon Invite 200m 33.6 10th · 6th on team +0.4% PR SR
2024-04-20 Darius Dixon Invite 100m 16.08 17th · 11th on team +0.4% PR SR
2024-03-03 AAU Indoor National Champonships lj FOUL -1.0%
2024-03-03 AAU Indoor National Champonships 60m 9.61 28th · 2nd on team -1.0% PR SR
2024-02-18 HRH Winter Storm Classic lj 9' 7.25" 0.0%
2024-02-18 HRH Winter Storm Classic 55m 9.44 18th · 5th on team 0.0%
2024-02-18 HRH Winter Storm Classic 400m 1:23.14 14th · 4th on team 0.0% PR SR
2024-01-28 2024 Track757 Indoor Invitational lj 2.56m -1.0%
2024-01-28 2024 Track757 Indoor Invitational 60m 9.77 25th · 4th on team -1.0% PR SR
2024-01-28 2024 Track757 Indoor Invitational 200m 33.98 22nd · 5th on team -1.0% PR SR
2024-01-20 BWSP Queens and Kings lj 9' 9.50" +1.1%
2024-01-20 BWSP Queens and Kings 55m 9.19 17th · 4th on team +1.1%
2024-01-20 BWSP Queens and Kings 200m 35.24 15th · 5th on team +1.1%
2024-01-14 VA Showcase Club 200m 34.88 34th · 4th on team -1.0%
2024-01-14 VA Showcase Club 60m 10.26 41st · 4th on team -1.0%
2024-01-06 BWSP Queens and Kings 200m 34.37 16th · 3rd on team 0.0% PR SR
2024-01-06 BWSP Queens and Kings 55m 9.11 24th · 7th on team 0.0% PR SR
2023-12-17 2023 Grant Holloway AAU Invitational 200m 36.01 17th · 4th on team -1.0%
2023-12-17 2023 Grant Holloway AAU Invitational 60m 9.92 21st · 2nd on team -1.0% PR SR
2023-12-02 The Virginia Beast HS Invitational 200m 34.66 6th · 4th on team -1.0% PR SR
2023-12-02 The Virginia Beast HS Invitational 55m 9.22 14th · 7th on team -1.0% PR SR
2023-12-02 The Virginia Beast HS Invitational 55m 9.18 12th · 5th on team -1.0% PR SR